Time;durP1;ratioP1;P1;durP2;ratioP2;P2;SDS_P1;SDS_P2;PMS_P1;PMS_P2;Temp;Humidity;BMP_temperature;BMP_pressure;BME280_temperature;BME280_humidity;BME280_pressure;Samples;Min_cycle;Max_cycle;Signal;HPM_P1;HPM_P2
2023/01/13 00:01:25;;;;;;;10.70;4.17;;;;;;;;;;12838902;19;20007;-65
2023/01/13 00:05:43;;;;;;;10.35;4.90;;;;;;;;;;12834924;19;20357;-65
2023/01/13 00:10:01;;;;;;;6.60;3.90;;;;;;;;;;12834761;19;20355;-66
2023/01/13 00:14:19;;;;;;;9.00;4.47;;;;;;;;;;12832902;19;20473;-65
2023/01/13 00:18:37;;;;;;;11.80;4.83;;;;;;;;;;12835454;19;20770;-65
2023/01/13 00:22:55;;;;;;;10.35;4.60;;;;;;;;;;12835051;19;20449;-66
2023/01/13 00:27:13;;;;;;;8.68;4.13;;;;;;;;;;12834015;19;20392;-65
2023/01/13 00:31:31;;;;;;;10.10;5.22;;;;;;;;;;12834460;19;20039;-66
2023/01/13 00:36:00;;;;;;;9.98;4.05;;;;;;;;;;12838153;19;20434;-67
2023/01/13 00:40:17;;;;;;;10.00;4.90;;;;;;;;;;12834564;19;20496;-65
2023/01/13 00:44:35;;;;;;;16.47;4.83;;;;;;;;;;12835995;19;20374;-65
2023/01/13 00:48:53;;;;;;;8.55;4.25;;;;;;;;;;12832695;19;20303;-67
2023/01/13 00:53:12;;;;;;;9.45;4.18;;;;;;;;;;12833046;19;20334;-66
2023/01/13 00:57:30;;;;;;;10.80;5.18;;;;;;;;;;12834759;19;20348;-65
2023/01/13 01:01:47;;;;;;;15.50;5.40;;;;;;;;;;12843904;19;20410;-67
2023/01/13 01:06:19;;;;;;;8.30;4.23;;;;;;;;;;12843782;19;20302;-66
2023/01/13 01:10:37;;;;;;;11.15;4.57;;;;;;;;;;12844804;19;20758;-66
2023/01/13 01:14:55;;;;;;;9.43;4.18;;;;;;;;;;12845300;19;20392;-65
2023/01/13 01:19:13;;;;;;;9.80;4.10;;;;;;;;;;12843668;19;20466;-65
2023/01/13 01:23:32;;;;;;;6.97;3.23;;;;;;;;;;12845046;19;20583;-66
2023/01/13 01:27:49;;;;;;;9.15;3.97;;;;;;;;;;12844447;19;20506;-65
2023/01/13 01:32:07;;;;;;;10.23;3.67;;;;;;;;;;12842932;19;20654;-65
2023/01/13 01:36:28;;;;;;;7.43;3.33;;;;;;;;;;12843502;19;20485;-67
2023/01/13 01:40:46;;;;;;;6.47;3.60;;;;;;;;;;12844249;19;20386;-68
2023/01/13 01:45:20;;;;;;;8.10;4.10;;;;;;;;;;12844045;19;20032;-66
2023/01/13 01:49:38;;;;;;;9.52;4.15;;;;;;;;;;12841302;19;20369;-66
2023/01/13 01:53:57;;;;;;;;;;;;;;;;;;12841809;19;20339;-65
2023/01/13 01:58:21;;;;;;;11.90;3.65;;;;;;;;;;12841225;19;20406;-65
2023/01/13 02:02:42;;;;;;;7.55;3.15;;;;;;;;;;12842253;19;20423;-65
2023/01/13 02:07:02;;;;;;;8.88;4.30;;;;;;;;;;12841179;19;20435;-65
2023/01/13 02:16:20;;;;;;;6.00;2.88;;;;;;;;;;12839060;19;20520;-65
2023/01/13 02:20:50;;;;;;;6.93;3.50;;;;;;;;;;12840508;19;20363;-65
2023/01/13 02:25:45;;;;;;;8.85;3.88;;;;;;;;;;12839963;19;20675;-65
2023/01/13 02:35:20;;;;;;;9.27;3.78;;;;;;;;;;12838978;19;20473;-67
2023/01/13 02:39:58;;;;;;;7.97;4.20;;;;;;;;;;12838344;19;20040;-66
2023/01/13 02:44:23;;;;;;;10.43;4.70;;;;;;;;;;12839537;19;20323;-65
2023/01/13 02:48:44;;;;;;;7.88;4.18;;;;;;;;;;12837180;19;20457;-65
2023/01/13 02:53:16;;;;;;;9.15;4.65;;;;;;;;;;12836860;19;20367;-65
2023/01/13 02:57:36;;;;;;;7.55;4.20;;;;;;;;;;12838631;19;20498;-65
2023/01/13 03:01:56;;;;;;;6.40;3.85;;;;;;;;;;12837854;19;20303;-65
2023/01/13 03:07:04;;;;;;;8.27;5.10;;;;;;;;;;12838075;19;20377;-66
2023/01/13 03:11:30;;;;;;;6.38;3.38;;;;;;;;;;12838482;19;20019;-65
2023/01/13 03:16:41;;;;;;;5.45;3.45;;;;;;;;;;12839559;19;20031;-66
2023/01/13 03:21:38;;;;;;;8.85;4.47;;;;;;;;;;12836430;19;20356;-66
2023/01/13 03:26:15;;;;;;;6.90;4.22;;;;;;;;;;12832763;19;20312;-65
2023/01/13 03:30:40;;;;;;;9.02;4.05;;;;;;;;;;12837153;19;20465;-65
2023/01/13 03:35:21;;;;;;;7.30;4.07;;;;;;;;;;12835520;19;20368;-66
2023/01/13 03:39:46;;;;;;;8.63;4.20;;;;;;;;;;12837203;19;20378;-65
2023/01/13 03:44:23;;;;;;;7.35;3.92;;;;;;;;;;12834943;19;20587;-66
2023/01/13 03:48:44;;;;;;;6.15;3.88;;;;;;;;;;12835068;19;20482;-65
2023/01/13 03:53:10;;;;;;;7.95;4.10;;;;;;;;;;12834101;19;20154;-66
2023/01/13 03:57:31;;;;;;;8.82;3.60;;;;;;;;;;12837063;19;20575;-65
2023/01/13 04:01:59;;;;;;;6.43;3.53;;;;;;;;;;12834588;19;20485;-65
2023/01/13 04:06:34;;;;;;;5.57;3.85;;;;;;;;;;12834679;19;20066;-66
2023/01/13 04:11:01;;;;;;;5.25;3.65;;;;;;;;;;12835185;19;20382;-67
2023/01/13 04:15:24;;;;;;;4.43;3.03;;;;;;;;;;12833535;19;20367;-66
2023/01/13 04:19:41;;;;;;;6.55;3.13;;;;;;;;;;12833853;19;20349;-65
2023/01/13 04:23:59;;;;;;;4.25;2.85;;;;;;;;;;12833755;19;20473;-65
2023/01/13 04:28:17;;;;;;;5.95;3.17;;;;;;;;;;12834432;19;20379;-66
2023/01/13 04:32:35;;;;;;;5.80;3.47;;;;;;;;;;12835390;19;20356;-65
2023/01/13 04:36:52;;;;;;;7.05;3.45;;;;;;;;;;12847482;19;20351;-65
2023/01/13 04:41:10;;;;;;;4.25;3.38;;;;;;;;;;12846436;19;20066;-66
2023/01/13 04:45:27;;;;;;;9.68;5.13;;;;;;;;;;12845723;19;20371;-66
2023/01/13 04:49:45;;;;;;;6.05;3.58;;;;;;;;;;12845546;19;20378;-66
2023/01/13 04:54:03;;;;;;;8.60;3.57;;;;;;;;;;12845825;19;20662;-65
2023/01/13 04:58:20;;;;;;;8.53;4.80;;;;;;;;;;12846564;19;23386;-66
2023/01/13 05:02:38;;;;;;;9.90;4.50;;;;;;;;;;12845934;19;20469;-65
2023/01/13 05:06:57;;;;;;;6.72;3.83;;;;;;;;;;12844769;19;20495;-68
2023/01/13 05:20:27;;;;;;;5.90;3.33;;;;;;;;;;12844650;19;20367;-65
2023/01/13 05:29:22;;;;;;;4.55;3.35;;;;;;;;;;12843756;19;20504;-67
2023/01/13 05:33:39;;;;;;;4.70;3.13;;;;;;;;;;12844644;19;20402;-65
2023/01/13 05:37:57;;;;;;;4.50;2.50;;;;;;;;;;12843738;19;20074;-67
2023/01/13 05:46:51;;;;;;;5.55;3.10;;;;;;;;;;12841057;19;20494;-66
2023/01/13 05:51:11;;;;;;;6.50;2.73;;;;;;;;;;12842333;19;20478;-67
2023/01/13 05:55:29;;;;;;;6.30;3.08;;;;;;;;;;12843466;19;20002;-65
2023/01/13 05:59:46;;;;;;;5.13;3.15;;;;;;;;;;12841381;19;20354;-66
2023/01/13 06:04:04;;;;;;;6.30;3.87;;;;;;;;;;12842221;19;20368;-67
2023/01/13 06:08:22;;;;;;;7.90;4.32;;;;;;;;;;12842192;19;20526;-65
2023/01/13 06:12:39;;;;;;;8.43;4.30;;;;;;;;;;12842670;19;20467;-66
2023/01/13 06:16:57;;;;;;;6.37;3.60;;;;;;;;;;12842025;19;20041;-66
2023/01/13 06:21:14;;;;;;;6.50;3.80;;;;;;;;;;12840750;19;20372;-66
2023/01/13 06:26:14;;;;;;;3.95;2.85;;;;;;;;;;12842584;19;20019;-66
2023/01/13 06:30:38;;;;;;;6.90;3.30;;;;;;;;;;12839128;19;20435;-65
2023/01/13 06:35:05;;;;;;;3.85;2.60;;;;;;;;;;12839190;19;20031;-67
2023/01/13 06:39:29;;;;;;;6.78;3.67;;;;;;;;;;12838676;19;20485;-67
2023/01/13 06:43:47;;;;;;;6.78;3.67;;;;;;;;;;12838505;19;20364;-66
2023/01/13 06:48:05;;;;;;;6.97;4.03;;;;;;;;;;12837590;19;20489;-65
2023/01/13 06:52:23;;;;;;;7.78;4.65;;;;;;;;;;12838372;19;20413;-66
2023/01/13 06:56:41;;;;;;;10.63;4.17;;;;;;;;;;12840979;19;20327;-65
2023/01/13 07:00:59;;;;;;;9.75;3.50;;;;;;;;;;12841970;19;20370;-65
2023/01/13 07:05:18;;;;;;;7.85;3.97;;;;;;;;;;12839715;19;20469;-66
2023/01/13 07:09:36;;;;;;;;;;;;;;;;;;12841024;19;20027;-65
2023/01/13 07:18:32;;;;;;;13.15;5.45;;;;;;;;;;12839409;19;20074;-67
2023/01/13 07:22:54;;;;;;;8.88;4.78;;;;;;;;;;12836887;19;20294;-65
2023/01/13 07:27:11;;;;;;;10.23;5.40;;;;;;;;;;12837379;19;20494;-66
2023/01/13 07:31:29;;;;;;;6.35;3.83;;;;;;;;;;12838012;19;20450;-65
2023/01/13 07:35:54;;;;;;;9.43;4.22;;;;;;;;;;12838870;19;20006;-65
2023/01/13 07:40:12;;;;;;;7.07;3.80;;;;;;;;;;12835982;19;20489;-65
2023/01/13 07:44:29;;;;;;;7.53;4.33;;;;;;;;;;12837083;19;20524;-65
2023/01/13 07:48:47;;;;;;;8.25;4.55;;;;;;;;;;12838073;19;20351;-66
2023/01/13 07:53:05;;;;;;;7.50;4.85;;;;;;;;;;12836047;19;20460;-67
2023/01/13 07:57:23;;;;;;;5.97;3.30;;;;;;;;;;12835652;19;20387;-67
2023/01/13 08:01:40;;;;;;;5.72;3.35;;;;;;;;;;12836814;19;20373;-66
2023/01/13 08:06:00;;;;;;;5.10;3.40;;;;;;;;;;12836537;19;20475;-67
2023/01/13 08:10:18;;;;;;;6.32;3.38;;;;;;;;;;12841763;19;20449;-65
2023/01/13 08:14:36;;;;;;;6.60;3.80;;;;;;;;;;12848494;19;20482;-65
2023/01/13 08:18:53;;;;;;;6.07;3.53;;;;;;;;;;12848774;19;20488;-66
2023/01/13 08:23:11;;;;;;;7.73;4.27;;;;;;;;;;12847166;19;20722;-66
2023/01/13 08:27:28;;;;;;;10.50;4.40;;;;;;;;;;12846111;19;20686;-65
2023/01/13 08:31:46;;;;;;;6.95;3.58;;;;;;;;;;12847842;19;20018;-66
2023/01/13 08:36:07;;;;;;;7.43;4.40;;;;;;;;;;12846367;19;20473;-67
2023/01/13 08:40:24;;;;;;;9.57;4.25;;;;;;;;;;12846786;19;20477;-67
2023/01/13 08:44:42;;;;;;;10.27;6.10;;;;;;;;;;12846742;19;20437;-65
2023/01/13 08:49:00;;;;;;;9.50;5.57;;;;;;;;;;12845701;19;20406;-65
2023/01/13 08:53:17;;;;;;;18.45;10.23;;;;;;;;;;12845785;19;20480;-67
2023/01/13 08:57:37;;;;;;;10.25;6.32;;;;;;;;;;12847196;19;20541;-66
2023/01/13 09:01:55;;;;;;;12.02;7.88;;;;;;;;;;12842894;19;20509;-67
2023/01/13 09:06:13;;;;;;;6.53;4.03;;;;;;;;;;12844976;19;20485;-65
2023/01/13 09:10:31;;;;;;;10.98;6.35;;;;;;;;;;12844360;19;20781;-65
2023/01/13 09:14:49;;;;;;;15.40;8.30;;;;;;;;;;12844601;19;20512;-66
2023/01/13 09:19:07;;;;;;;12.57;6.70;;;;;;;;;;12844465;19;20377;-65
2023/01/13 09:23:24;;;;;;;11.68;7.95;;;;;;;;;;12840498;19;20150;-66
2023/01/13 09:27:42;;;;;;;8.82;5.47;;;;;;;;;;12845088;19;20481;-65
2023/01/13 09:32:00;;;;;;;9.57;5.17;;;;;;;;;;12841795;19;20490;-66
2023/01/13 09:36:18;;;;;;;12.03;5.77;;;;;;;;;;12843733;19;20474;-66
2023/01/13 09:40:38;;;;;;;6.97;5.10;;;;;;;;;;12843884;19;20065;-66
2023/01/13 09:45:17;;;;;;;9.25;5.50;;;;;;;;;;12841467;19;20303;-67
2023/01/13 09:49:39;;;;;;;8.20;4.15;;;;;;;;;;12840690;19;20374;-66
2023/01/13 09:54:07;;;;;;;8.65;4.15;;;;;;;;;;12842965;19;20310;-66
2023/01/13 09:58:26;;;;;;;4.50;3.28;;;;;;;;;;12841283;19;20492;-67
2023/01/13 10:03:11;;;;;;;;;;;;;;;;;;12842103;19;20533;-66
2023/01/13 10:07:33;;;;;;;10.68;3.60;;;;;;;;;;12841969;19;20338;-68
2023/01/13 10:16:43;;;;;;;10.05;3.33;;;;;;;;;;12839909;19;20469;-66
2023/01/13 10:21:43;;;;;;;9.70;5.72;;;;;;;;;;12841235;19;20477;-66
2023/01/13 10:26:28;;;;;;;14.50;9.07;;;;;;;;;;12838747;19;20367;-66
2023/01/13 10:30:46;;;;;;;8.27;4.32;;;;;;;;;;12839187;19;20377;-65
2023/01/13 10:35:04;;;;;;;13.20;7.22;;;;;;;;;;12837641;19;20298;-69
2023/01/13 10:39:22;;;;;;;11.20;6.23;;;;;;;;;;12840693;19;20367;-66
2023/01/13 10:44:01;;;;;;;12.50;6.43;;;;;;;;;;12840392;19;20797;-69
2023/01/13 10:48:18;;;;;;;17.67;8.32;;;;;;;;;;12840243;19;20407;-65
2023/01/13 10:53:14;;;;;;;5.60;3.43;;;;;;;;;;12839412;19;20499;-65
2023/01/13 10:57:35;;;;;;;15.57;6.72;;;;;;;;;;12839902;19;20363;-67
2023/01/13 11:02:09;;;;;;;6.32;4.85;;;;;;;;;;12839826;19;20442;-65
2023/01/13 11:06:46;;;;;;;4.45;2.90;;;;;;;;;;12839241;19;20444;-65
2023/01/13 11:11:38;;;;;;;4.70;3.30;;;;;;;;;;12835655;19;20303;-65
2023/01/13 11:16:15;;;;;;;4.55;3.00;;;;;;;;;;12839598;19;20354;-66
2023/01/13 11:20:37;;;;;;;7.47;4.47;;;;;;;;;;12837199;19;20074;-65
2023/01/13 11:25:02;;;;;;;5.15;3.28;;;;;;;;;;12836932;19;20478;-65
2023/01/13 11:29:53;;;;;;;4.28;2.67;;;;;;;;;;12836586;19;20486;-64
2023/01/13 11:34:41;;;;;;;6.25;2.83;;;;;;;;;;12836873;19;20529;-64
2023/01/13 11:39:34;;;;;;;7.53;3.72;;;;;;;;;;12836150;19;20469;-65
2023/01/13 11:44:15;;;;;;;13.18;6.25;;;;;;;;;;12834185;19;20394;-66
2023/01/13 11:48:36;;;;;;;11.90;5.57;;;;;;;;;;12834756;19;20443;-65
2023/01/13 11:53:11;;;;;;;5.72;3.63;;;;;;;;;;12835203;19;20421;-65
2023/01/13 11:57:54;;;;;;;7.22;3.38;;;;;;;;;;12836921;19;20066;-65
2023/01/13 12:02:25;;;;;;;5.93;3.58;;;;;;;;;;12834985;19;20007;-65
2023/01/13 12:06:44;;;;;;;6.38;4.20;;;;;;;;;;12835379;19;20343;-65
2023/01/13 12:11:27;;;;;;;8.48;4.15;;;;;;;;;;12835574;19;20658;-65
2023/01/13 12:16:13;;;;;;;5.25;3.60;;;;;;;;;;12834246;19;20444;-65
2023/01/13 12:20:58;;;;;;;5.68;3.00;;;;;;;;;;12832841;19;20434;-66
2023/01/13 12:25:33;;;;;;;10.25;7.72;;;;;;;;;;12833818;19;20580;-65
2023/01/13 12:29:55;;;;;;;110.25;79.53;;;;;;;;;;12831208;19;20114;-63
2023/01/13 12:34:46;;;;;;;36.08;32.20;;;;;;;;;;12830236;19;20698;-64
2023/01/13 12:39:33;;;;;;;21.73;19.40;;;;;;;;;;12829720;19;20321;-66
2023/01/13 12:48:53;;;;;;;15.18;9.98;;;;;;;;;;12832177;19;20493;-67
2023/01/13 12:53:34;;;;;;;11.38;6.38;;;;;;;;;;12832689;19;20375;-64
2023/01/13 12:58:03;;;;;;;12.52;5.47;;;;;;;;;;12845591;19;20007;-67
2023/01/13 13:02:33;;;;;;;9.18;5.63;;;;;;;;;;12845483;19;20472;-65
2023/01/13 13:07:07;;;;;;;11.05;6.50;;;;;;;;;;12846153;19;20366;-64
2023/01/13 13:16:24;;;;;;;12.30;5.30;;;;;;;;;;12845507;19;20450;-67
2023/01/13 13:21:12;;;;;;;6.80;4.43;;;;;;;;;;12845601;19;20361;-65
2023/01/13 13:25:30;;;;;;;;;;;;;;;;;;12845595;19;20010;-65
2023/01/13 13:30:16;;;;;;;8.50;4.68;;;;;;;;;;12844940;19;20270;-65
2023/01/13 13:35:02;;;;;;;13.00;5.78;;;;;;;;;;12843751;19;20457;-65
2023/01/13 13:49:01;;;;;;;7.68;4.53;;;;;;;;;;12841875;19;20364;-65
2023/01/13 13:53:19;;;;;;;;;;;;;;;;;;12842794;19;20006;-64
2023/01/13 13:57:38;;;;;;;11.50;6.25;;;;;;;;;;12843732;19;19919;-65
2023/01/13 14:02:02;;;;;;;13.80;6.82;;;;;;;;;;12842868;19;20339;-66
2023/01/13 14:06:23;;;;;;;30.70;13.63;;;;;;;;;;12839547;19;20485;-65
2023/01/13 14:10:43;;;;;;;10.88;5.93;;;;;;;;;;12841651;19;20346;-66
2023/01/13 14:15:00;;;;;;;8.38;4.18;;;;;;;;;;12840191;19;20502;-65
2023/01/13 14:19:34;;;;;;;8.13;4.32;;;;;;;;;;12841875;19;20417;-64
2023/01/13 14:24:00;;;;;;;12.45;4.95;;;;;;;;;;12840895;19;20487;-64
2023/01/13 14:28:29;;;;;;;7.95;3.83;;;;;;;;;;12842715;19;20449;-66
2023/01/13 14:32:47;;;;;;;7.35;3.95;;;;;;;;;;12839775;19;20430;-65
2023/01/13 14:37:30;;;;;;;13.50;7.15;;;;;;;;;;12840407;19;20473;-64
2023/01/13 14:41:49;;;;;;;8.80;5.50;;;;;;;;;;12840515;19;20410;-64
2023/01/13 14:46:07;;;;;;;10.27;6.22;;;;;;;;;;12837827;19;20512;-67
2023/01/13 14:50:30;;;;;;;11.10;4.07;;;;;;;;;;12841834;19;20357;-65
2023/01/13 14:55:13;;;;;;;11.98;5.15;;;;;;;;;;12838951;19;20574;-65
2023/01/13 14:59:50;;;;;;;11.95;8.48;;;;;;;;;;12837608;19;20007;-65
2023/01/13 15:04:25;;;;;;;12.48;7.82;;;;;;;;;;12839153;19;20315;-64
2023/01/13 15:08:43;;;;;;;13.20;7.05;;;;;;;;;;12839657;19;20345;-64
2023/01/13 15:13:04;;;;;;;18.13;8.03;;;;;;;;;;12838235;19;20509;-65
2023/01/13 15:17:21;;;;;;;14.00;7.38;;;;;;;;;;12838490;19;20603;-65
2023/01/13 15:21:40;;;;;;;11.57;5.13;;;;;;;;;;12839317;19;20031;-66
2023/01/13 15:25:59;;;;;;;18.73;9.43;;;;;;;;;;12839688;19;20374;-64
2023/01/13 15:30:26;;;;;;;10.05;6.57;;;;;;;;;;12836927;19;20428;-65
2023/01/13 15:34:45;;;;;;;16.15;7.22;;;;;;;;;;12839067;19;20314;-64
2023/01/13 15:39:03;;;;;;;17.52;8.57;;;;;;;;;;12838188;19;20315;-65
2023/01/13 15:47:59;;;;;;;27.08;14.20;;;;;;;;;;12836256;19;20243;-65
2023/01/13 15:52:25;;;;;;;88.88;33.75;;;;;;;;;;12836543;19;20299;-67
2023/01/13 15:56:42;;;;;;;41.70;17.63;;;;;;;;;;12836813;19;20473;-65
2023/01/13 16:01:00;;;;;;;112.47;51.90;;;;;;;;;;12836573;19;20513;-67
2023/01/13 16:05:18;;;;;;;20.40;11.07;;;;;;;;;;12834622;19;20610;-65
2023/01/13 16:09:35;;;;;;;25.92;10.30;;;;;;;;;;12836691;19;20038;-65
2023/01/13 16:13:53;;;;;;;34.40;16.70;;;;;;;;;;12835461;19;20492;-66
2023/01/13 16:18:24;;;;;;;21.42;11.05;;;;;;;;;;12833751;19;20461;-65
2023/01/13 16:22:44;;;;;;;37.95;16.08;;;;;;;;;;12835971;19;20422;-65
2023/01/13 16:27:13;;;;;;;16.20;8.95;;;;;;;;;;12833519;19;20430;-65
2023/01/13 16:31:32;;;;;;;13.95;8.02;;;;;;;;;;12839953;19;20414;-64
2023/01/13 16:35:51;;;;;;;12.32;6.55;;;;;;;;;;12848327;19;20287;-65
2023/01/13 16:40:32;;;;;;;17.35;8.20;;;;;;;;;;12847386;19;20359;-65
2023/01/13 16:44:51;;;;;;;22.20;10.07;;;;;;;;;;12846634;19;20476;-65
2023/01/13 16:49:13;;;;;;;17.77;9.88;;;;;;;;;;12847192;19;20421;-67
2023/01/13 16:53:30;;;;;;;17.23;7.70;;;;;;;;;;12846190;19;20369;-64
2023/01/13 16:57:48;;;;;;;23.55;10.65;;;;;;;;;;12845041;19;20476;-65
2023/01/13 17:02:13;;;;;;;36.47;17.87;;;;;;;;;;12845229;19;20011;-65
2023/01/13 17:06:39;;;;;;;17.13;7.05;;;;;;;;;;12845709;19;20457;-64
2023/01/13 17:10:56;;;;;;;24.83;11.05;;;;;;;;;;12845842;19;20440;-65
2023/01/13 17:15:17;;;;;;;24.73;10.07;;;;;;;;;;12845578;19;20046;-64
2023/01/13 17:19:34;;;;;;;39.00;17.17;;;;;;;;;;12845469;19;19999;-65
2023/01/13 17:23:53;;;;;;;18.95;7.50;;;;;;;;;;12845104;19;20378;-64
2023/01/13 17:28:11;;;;;;;19.35;8.02;;;;;;;;;;12843856;19;20717;-64
2023/01/13 17:32:28;;;;;;;31.73;12.43;;;;;;;;;;12844561;19;20430;-65
2023/01/13 17:36:46;;;;;;;31.20;12.37;;;;;;;;;;12844536;19;21336;-66
2023/01/13 17:41:04;;;;;;;23.08;10.18;;;;;;;;;;12840936;19;20327;-67
2023/01/13 17:45:22;;;;;;;39.63;14.60;;;;;;;;;;12843080;19;20481;-64
2023/01/13 17:49:39;;;;;;;26.58;11.48;;;;;;;;;;12841729;19;20424;-66
2023/01/13 17:53:57;;;;;;;57.37;17.90;;;;;;;;;;12842602;19;20006;-67
2023/01/13 17:58:14;;;;;;;72.15;22.85;;;;;;;;;;12842751;19;20426;-64
2023/01/13 18:02:32;;;;;;;34.50;13.13;;;;;;;;;;12843218;19;20465;-66
2023/01/13 18:06:50;;;;;;;82.33;34.77;;;;;;;;;;12842475;19;20019;-65
2023/01/13 18:11:08;;;;;;;62.70;29.43;;;;;;;;;;12841469;19;20424;-64
2023/01/13 18:15:25;;;;;;;42.10;19.23;;;;;;;;;;12842860;19;20417;-65
2023/01/13 18:28:56;;;;;;;15.90;6.93;;;;;;;;;;12841982;19;20434;-66
2023/01/13 18:33:14;;;;;;;20.83;8.17;;;;;;;;;;12839833;19;20430;-65
2023/01/13 18:37:34;;;;;;;46.08;19.42;;;;;;;;;;12840696;19;20473;-65
2023/01/13 18:46:29;;;;;;;33.72;14.18;;;;;;;;;;12842406;19;20433;-65
2023/01/13 18:50:46;;;;;;;82.88;29.48;;;;;;;;;;12841517;19;20486;-66
2023/01/13 18:55:04;;;;;;;118.32;46.25;;;;;;;;;;12838819;19;20485;-66
2023/01/13 18:59:23;;;;;;;64.10;26.23;;;;;;;;;;12840793;19;20381;-66
2023/01/13 19:03:41;;;;;;;;;;;;;;;;;;12840233;19;20007;-65
2023/01/13 19:07:58;;;;;;;88.60;34.90;;;;;;;;;;12838898;19;20370;-65
2023/01/13 19:12:22;;;;;;;136.33;52.23;;;;;;;;;;12838318;19;20310;-65
2023/01/13 19:16:40;;;;;;;85.82;37.28;;;;;;;;;;12838855;19;20425;-66
2023/01/13 19:21:02;;;;;;;42.33;20.00;;;;;;;;;;12839364;19;20426;-66
2023/01/13 19:25:21;;;;;;;79.05;33.13;;;;;;;;;;12837938;19;20473;-66
2023/01/13 19:29:40;;;;;;;36.38;19.63;;;;;;;;;;12836850;19;20007;-65
2023/01/13 19:34:08;;;;;;;26.52;14.43;;;;;;;;;;12836251;19;20011;-66
2023/01/13 19:38:27;;;;;;;20.87;11.07;;;;;;;;;;12838533;19;20310;-66
2023/01/13 19:47:21;;;;;;;31.40;12.23;;;;;;;;;;12836333;19;20322;-66
2023/01/13 19:51:38;;;;;;;30.77;13.82;;;;;;;;;;12836395;19;20458;-65
2023/01/13 19:55:57;;;;;;;34.70;14.17;;;;;;;;;;12837151;19;20433;-66
2023/01/13 20:00:19;;;;;;;41.35;17.27;;;;;;;;;;12836067;19;20338;-65
2023/01/13 20:04:37;;;;;;;26.67;11.40;;;;;;;;;;12833183;19;20302;-66
2023/01/13 20:08:55;;;;;;;26.40;12.30;;;;;;;;;;12835883;19;20306;-66
2023/01/13 20:13:13;;;;;;;59.30;27.10;;;;;;;;;;12834909;19;20536;-66
2023/01/13 20:17:31;;;;;;;53.95;26.50;;;;;;;;;;12835482;19;20015;-65
2023/01/13 20:21:49;;;;;;;24.90;13.70;;;;;;;;;;12834665;19;20479;-65
2023/01/13 20:26:07;;;;;;;32.95;15.68;;;;;;;;;;12835580;19;20737;-65
2023/01/13 20:30:25;;;;;;;20.23;11.32;;;;;;;;;;12835932;19;20398;-65
2023/01/13 20:34:43;;;;;;;17.70;9.77;;;;;;;;;;12834876;19;20018;-65
2023/01/13 20:39:04;;;;;;;22.20;10.50;;;;;;;;;;12835183;19;20438;-66
2023/01/13 20:43:22;;;;;;;17.50;8.52;;;;;;;;;;12833026;19;20316;-66
2023/01/13 20:47:39;;;;;;;26.98;10.60;;;;;;;;;;12833623;19;20461;-67
2023/01/13 20:51:57;;;;;;;25.83;11.93;;;;;;;;;;12835703;19;20452;-65
2023/01/13 20:56:15;;;;;;;25.98;14.05;;;;;;;;;;12831682;19;20381;-65
2023/01/13 21:00:33;;;;;;;24.77;11.77;;;;;;;;;;12833888;19;20007;-65
2023/01/13 21:04:51;;;;;;;21.27;10.30;;;;;;;;;;12833331;19;20473;-66
2023/01/13 21:09:08;;;;;;;26.10;12.20;;;;;;;;;;12833874;19;20091;-65
2023/01/13 21:22:45;;;;;;;17.25;9.00;;;;;;;;;;12846091;19;20426;-66
2023/01/13 21:27:02;;;;;;;16.30;9.60;;;;;;;;;;12845051;19;20437;-65
2023/01/13 21:31:21;;;;;;;14.18;8.55;;;;;;;;;;12846416;19;20342;-65
2023/01/13 21:35:38;;;;;;;10.93;6.47;;;;;;;;;;12844817;19;20469;-67
2023/01/13 21:39:56;;;;;;;13.00;7.57;;;;;;;;;;12846175;19;20011;-65
2023/01/13 21:48:55;;;;;;;13.77;7.97;;;;;;;;;;12843680;19;20007;-66
2023/01/13 21:53:13;;;;;;;16.63;7.53;;;;;;;;;;12842432;19;20446;-67
2023/01/13 21:57:30;;;;;;;12.88;7.38;;;;;;;;;;12844295;19;20457;-65
2023/01/13 22:01:48;;;;;;;9.85;6.30;;;;;;;;;;12843647;19;20449;-66
2023/01/13 22:06:26;;;;;;;17.63;9.25;;;;;;;;;;12843287;19;20350;-65
2023/01/13 22:10:55;;;;;;;;;;;;;;;;;;12844179;19;20470;-65
2023/01/13 22:15:15;;;;;;;11.52;7.63;;;;;;;;;;12841731;19;20322;-66
2023/01/13 22:19:37;;;;;;;17.75;9.73;;;;;;;;;;12842743;19;20472;-65
2023/01/13 22:23:55;;;;;;;16.05;7.82;;;;;;;;;;12842046;19;20003;-66
2023/01/13 22:28:22;;;;;;;13.30;7.93;;;;;;;;;;12840080;19;20017;-66
2023/01/13 22:32:40;;;;;;;15.50;9.27;;;;;;;;;;12841477;19;20437;-67
2023/01/13 22:36:58;;;;;;;15.20;8.20;;;;;;;;;;12840842;19;20450;-65
2023/01/13 22:41:16;;;;;;;14.63;7.88;;;;;;;;;;12840454;19;20754;-66
2023/01/13 22:45:34;;;;;;;14.85;8.15;;;;;;;;;;12840127;19;20418;-67
2023/01/13 22:49:51;;;;;;;8.30;5.20;;;;;;;;;;12840639;19;20437;-68
2023/01/13 22:54:11;;;;;;;13.10;6.60;;;;;;;;;;12839425;19;20477;-66
2023/01/13 22:58:28;;;;;;;11.45;6.68;;;;;;;;;;12838872;19;20359;-65
2023/01/13 23:02:49;;;;;;;11.85;6.30;;;;;;;;;;12838755;19;20364;-65
2023/01/13 23:07:07;;;;;;;10.90;6.00;;;;;;;;;;12838276;19;20426;-66
2023/01/13 23:11:26;;;;;;;12.00;6.30;;;;;;;;;;12836384;19;20312;-65
2023/01/13 23:15:44;;;;;;;10.60;6.97;;;;;;;;;;12837362;19;20444;-66
2023/01/13 23:20:02;;;;;;;10.57;5.97;;;;;;;;;;12841103;19;20344;-66
2023/01/13 23:24:24;;;;;;;10.90;6.90;;;;;;;;;;12836469;19;20557;-67
2023/01/13 23:28:42;;;;;;;14.80;6.85;;;;;;;;;;12837907;19;20337;-65
2023/01/13 23:33:00;;;;;;;13.95;6.00;;;;;;;;;;12834329;19;20011;-67
2023/01/13 23:37:18;;;;;;;14.45;7.80;;;;;;;;;;12332964;19;10001104;-66
2023/01/13 23:41:36;;;;;;;10.60;6.53;;;;;;;;;;12834382;19;20333;-65
2023/01/13 23:46:05;;;;;;;11.82;6.18;;;;;;;;;;12836018;19;20321;-66
2023/01/13 23:50:23;;;;;;;10.57;5.88;;;;;;;;;;12838278;19;20567;-66
2023/01/13 23:54:41;;;;;;;15.00;7.85;;;;;;;;;;12836903;19;20371;-65
2023/01/13 23:58:58;;;;;;;13.40;6.88;;;;;;;;;;12836516;19;20418;-66
